createdAt,value
2022-10-14T00:01:33.733Z,94947.00
2022-10-14T00:03:36.552Z,94943.63
2022-10-14T00:05:41.652Z,94946.28
2022-10-14T00:07:44.542Z,94944.31
2022-10-14T00:09:46.719Z,94940.34
2022-10-14T00:11:49.315Z,94937.00
2022-10-14T00:13:54.549Z,94936.66
2022-10-14T00:15:56.430Z,94934.00
2022-10-14T00:17:58.392Z,94936.00
2022-10-14T00:20:00.378Z,94931.38
2022-10-14T00:22:01.998Z,94925.13
2022-10-14T00:24:03.840Z,94934.00
2022-10-14T00:26:05.695Z,94928.81
2022-10-14T00:28:07.395Z,94925.06
2022-10-14T00:30:09.584Z,94926.03
2022-10-14T00:32:11.301Z,94931.50
2022-10-14T00:34:15.986Z,94924.69
2022-10-14T00:36:20.241Z,94928.63
2022-10-14T00:38:22.108Z,94932.22
2022-10-14T00:40:23.834Z,94919.31
2022-10-14T00:42:25.711Z,94922.59
2022-10-14T00:44:27.278Z,94929.50
2022-10-14T00:46:31.619Z,94925.72
2022-10-14T00:48:33.275Z,94923.59
2022-10-14T00:50:35.681Z,94930.69
2022-10-14T00:52:37.733Z,94928.69
2022-10-14T00:55:04.152Z,94918.69
2022-10-14T00:57:06.156Z,94916.28
2022-10-14T00:59:08.063Z,94911.34
2022-10-14T01:01:09.786Z,94910.22
2022-10-14T01:03:19.686Z,94905.69
2022-10-14T01:05:21.357Z,94898.94
2022-10-14T01:07:41.137Z,94907.03
2022-10-14T01:10:00.955Z,94903.38
2022-10-14T01:14:59.348Z,94896.94
2022-10-14T01:17:23.557Z,94889.41
2022-10-14T01:20:00.552Z,94890.16
2022-10-14T01:22:13.518Z,94886.41
2022-10-14T01:24:40.827Z,94882.28
2022-10-14T01:27:07.703Z,94876.56
2022-10-14T01:29:14.946Z,94877.75
2022-10-14T01:31:48.441Z,94872.97
2022-10-14T01:33:53.552Z,94866.84
2022-10-14T01:36:11.473Z,94867.50
2022-10-14T01:38:22.402Z,94871.63
2022-10-14T01:40:31.586Z,94874.78
2022-10-14T01:42:35.513Z,94864.75
2022-10-14T01:44:41.261Z,94864.25
2022-10-14T01:46:46.736Z,94865.44
2022-10-14T01:48:52.102Z,94866.44
2022-10-14T01:50:54.695Z,94856.09
2022-10-14T01:53:02.108Z,94861.22
2022-10-14T01:55:07.049Z,94858.47
2022-10-14T01:57:12.002Z,94864.00
2022-10-14T01:59:15.535Z,94867.94
2022-10-14T02:01:17.493Z,94865.66
2022-10-14T02:03:19.330Z,94862.72
2022-10-14T02:05:34.586Z,94868.34
2022-10-14T02:07:40.369Z,94870.66
2022-10-14T02:10:04.900Z,94864.78
2022-10-14T02:12:20.473Z,94864.50
2022-10-14T02:14:39.411Z,94860.88
2022-10-14T02:16:49.456Z,94861.03
2022-10-14T02:19:20.637Z,94867.59
2022-10-14T02:21:32.203Z,94863.16
2022-10-14T02:23:42.181Z,94868.41
2022-10-14T02:25:45.872Z,94859.84
2022-10-14T02:27:48.838Z,94856.09
2022-10-14T02:29:51.077Z,94864.16
2022-10-14T02:31:53.472Z,94853.94
2022-10-14T02:33:58.815Z,94860.19
2022-10-14T02:36:01.941Z,94856.41
2022-10-14T02:38:05.037Z,94850.97
2022-10-14T02:40:18.999Z,94856.91
2022-10-14T02:42:20.915Z,94847.06
2022-10-14T02:44:23.001Z,94849.81
2022-10-14T02:46:24.650Z,94859.81
2022-10-14T02:48:26.429Z,94851.41
2022-10-14T02:50:28.407Z,94858.66
2022-10-14T02:52:30.120Z,94852.06
2022-10-14T02:54:31.724Z,94844.38
2022-10-14T02:56:33.721Z,94843.22
2022-10-14T02:58:35.411Z,94848.00
2022-10-14T03:00:37.134Z,94844.03
2022-10-14T03:02:38.865Z,94852.44
2022-10-14T03:04:40.550Z,94850.19
2022-10-14T03:06:42.145Z,94846.44
2022-10-14T03:08:43.890Z,94848.75
2022-10-14T03:10:48.428Z,94849.94
2022-10-14T03:12:50.302Z,94853.66
2022-10-14T03:14:51.984Z,94856.28
2022-10-14T03:16:53.820Z,94837.34
2022-10-14T03:18:55.392Z,94842.56
2022-10-14T03:20:57.249Z,94839.59
2022-10-14T03:22:58.859Z,94843.19
2022-10-14T03:25:00.488Z,94833.03
2022-10-14T03:27:02.202Z,94833.75
2022-10-14T03:29:03.964Z,94834.44
2022-10-14T03:31:05.798Z,94835.63
2022-10-14T03:33:08.419Z,94842.38
2022-10-14T03:35:10.718Z,94842.34
2022-10-14T03:37:12.351Z,94843.53
2022-10-14T03:39:14.167Z,94840.53
2022-10-14T03:41:16.001Z,94839.88
2022-10-14T03:43:17.687Z,94840.91
2022-10-14T03:45:19.271Z,94838.91
2022-10-14T03:47:21.554Z,94842.19
2022-10-14T03:49:23.242Z,94831.03
2022-10-14T03:51:24.872Z,94832.38
2022-10-14T03:53:26.587Z,94837.47
2022-10-14T03:55:28.258Z,94837.97
2022-10-14T03:57:29.807Z,94833.31
2022-10-14T03:59:31.694Z,94830.03
2022-10-14T04:01:33.423Z,94830.56
2022-10-14T04:03:35.038Z,94827.94
2022-10-14T04:05:37.249Z,94830.41
2022-10-14T04:07:39.066Z,94822.50
2022-10-14T04:09:40.797Z,94829.06
2022-10-14T04:11:42.405Z,94815.63
2022-10-14T04:13:45.392Z,94822.22
2022-10-14T04:15:47.360Z,94814.84
2022-10-14T04:17:49.421Z,94824.56
2022-10-14T04:19:51.677Z,94819.44
2022-10-14T04:21:53.343Z,94807.78
2022-10-14T04:23:55.002Z,94813.03
2022-10-14T04:25:56.637Z,94813.19
2022-10-14T04:27:58.475Z,94814.47
2022-10-14T04:30:00.194Z,94801.47
2022-10-14T04:32:02.055Z,94811.94
2022-10-14T04:34:03.790Z,94815.03
2022-10-14T04:36:06.649Z,94822.59
2022-10-14T04:38:08.418Z,94815.22
2022-10-14T04:40:10.554Z,94813.59
2022-10-14T04:42:12.317Z,94801.63
2022-10-14T04:44:13.976Z,94808.69
2022-10-14T04:46:15.557Z,94811.81
2022-10-14T04:48:18.391Z,94809.66
2022-10-14T04:50:20.464Z,94808.16
2022-10-14T04:52:22.712Z,94801.06
2022-10-14T04:54:24.530Z,94792.53
2022-10-14T04:56:26.232Z,94795.00
2022-10-14T04:58:28.127Z,94804.56
2022-10-14T05:00:30.805Z,94804.75
2022-10-14T05:02:32.425Z,94801.00
2022-10-14T05:04:34.211Z,94805.66
2022-10-14T05:06:37.427Z,94805.44
2022-10-14T05:08:39.106Z,94803.81
2022-10-14T05:10:40.997Z,94798.28
2022-10-14T05:12:42.707Z,94794.63
2022-10-14T05:14:44.342Z,94793.63
2022-10-14T05:16:45.968Z,94793.44
2022-10-14T05:18:47.625Z,94791.91
2022-10-14T05:20:49.356Z,94792.25
2022-10-14T05:22:51.044Z,94794.84
2022-10-14T05:24:52.728Z,94788.53
2022-10-14T05:26:54.377Z,94790.88
2022-10-14T05:28:56.288Z,94794.50
2022-10-14T05:30:58.136Z,94793.16
2022-10-14T05:32:59.761Z,94791.31
2022-10-14T05:35:01.574Z,94791.81
2022-10-14T05:37:03.798Z,94796.97
2022-10-14T05:39:09.346Z,94802.53
2022-10-14T05:41:11.161Z,94795.81
2022-10-14T05:43:12.838Z,94801.22
2022-10-14T05:45:14.831Z,94801.84
2022-10-14T05:47:16.875Z,94805.16
2022-10-14T05:49:18.574Z,94807.28
2022-10-14T05:51:21.559Z,94808.63
2022-10-14T05:53:23.288Z,94808.78
2022-10-14T05:55:25.045Z,94805.09
2022-10-14T05:57:28.004Z,94812.78
2022-10-14T05:59:29.986Z,94824.28
2022-10-14T06:01:34.728Z,94818.66
2022-10-14T06:03:36.599Z,94820.34
2022-10-14T06:05:38.495Z,94817.22
2022-10-14T06:07:40.179Z,94828.53
2022-10-14T06:09:41.898Z,94828.88
2022-10-14T06:11:43.634Z,94836.28
2022-10-14T06:13:45.302Z,94834.81
2022-10-14T06:15:47.016Z,94847.97
2022-10-14T06:17:48.808Z,94839.25
2022-10-14T06:19:50.554Z,94838.09
2022-10-14T06:21:52.190Z,94841.72
2022-10-14T06:23:53.891Z,94842.72
2022-10-14T06:25:55.563Z,94843.31
2022-10-14T06:28:06.409Z,94850.81
2022-10-14T06:30:08.831Z,94846.31
2022-10-14T06:32:10.464Z,94841.28
2022-10-14T06:34:12.175Z,94846.22
2022-10-14T06:36:13.832Z,94844.84
2022-10-14T06:38:16.693Z,94847.31
2022-10-14T06:40:18.539Z,94852.72
2022-10-14T06:42:20.218Z,94850.00
2022-10-14T06:44:21.884Z,94848.13
2022-10-14T06:46:25.353Z,94850.47
2022-10-14T06:48:27.034Z,94849.34
2022-10-14T06:50:28.790Z,94855.84
2022-10-14T06:52:30.519Z,94851.66
2022-10-14T06:54:36.811Z,94850.53
2022-10-14T06:56:40.628Z,94847.81
2022-10-14T06:58:42.602Z,94839.25
2022-10-14T07:00:47.974Z,94838.34
2022-10-14T07:02:49.983Z,94846.38
2022-10-14T07:04:51.654Z,94846.09
2022-10-14T07:06:53.444Z,94841.06
2022-10-14T07:08:55.090Z,94844.38
2022-10-14T07:10:56.974Z,94830.72
2022-10-14T07:12:58.642Z,94846.25
2022-10-14T07:15:00.351Z,94838.66
2022-10-14T07:17:02.097Z,94843.28
2022-10-14T07:19:03.784Z,94840.41
2022-10-14T07:21:06.323Z,94840.00
2022-10-14T07:23:08.038Z,94847.19
2022-10-14T07:25:10.029Z,94842.75
2022-10-14T07:27:12.066Z,94845.38
2022-10-14T07:29:13.929Z,94841.50
2022-10-14T07:31:15.551Z,94842.97
2022-10-14T07:33:17.236Z,94841.16
2022-10-14T07:35:21.750Z,94840.88
2022-10-14T07:37:23.945Z,94838.53
2022-10-14T07:39:26.052Z,94836.31
2022-10-14T07:41:28.172Z,94840.41
2022-10-14T07:43:30.377Z,94829.50
2022-10-14T07:45:35.931Z,94837.06
2022-10-14T07:47:37.596Z,94831.56
2022-10-14T07:49:39.613Z,94835.41
2022-10-14T07:51:42.496Z,94834.84
2022-10-14T07:53:44.230Z,94829.59
2022-10-14T07:55:52.382Z,94840.22
2022-10-14T07:57:54.125Z,94828.34
2022-10-14T07:59:55.787Z,94838.56
2022-10-14T08:01:57.616Z,94836.22
2022-10-14T08:03:59.373Z,94827.75
2022-10-14T08:06:04.205Z,94833.41
2022-10-14T08:08:05.998Z,94832.69
2022-10-14T08:10:07.694Z,94839.22
2022-10-14T08:12:09.430Z,94827.31
2022-10-14T08:14:11.187Z,94834.66
2022-10-14T08:16:18.509Z,94834.66
2022-10-14T08:18:20.139Z,94834.13
2022-10-14T08:22:28.498Z,94837.66
2022-10-14T08:24:30.180Z,94843.22
2022-10-14T08:26:35.177Z,94840.00
2022-10-14T08:28:36.885Z,94839.56
2022-10-14T08:30:38.591Z,94835.03
2022-10-14T08:32:40.219Z,94844.75
2022-10-14T08:34:41.909Z,94837.94
2022-10-14T08:36:43.555Z,94844.50
2022-10-14T08:38:45.514Z,94838.50
2022-10-14T08:41:00.244Z,94838.59
2022-10-14T08:43:06.949Z,94839.22
2022-10-14T08:45:15.375Z,94843.06
2022-10-14T08:47:21.689Z,94846.84
2022-10-14T08:49:35.442Z,94847.22
2022-10-14T08:51:37.929Z,94849.22
2022-10-14T08:53:46.737Z,94845.94
2022-10-14T08:55:51.705Z,94853.13
2022-10-14T08:58:22.589Z,94848.81
2022-10-14T09:00:24.423Z,94842.00
2022-10-14T09:02:43.628Z,94841.19
2022-10-14T09:04:45.330Z,94844.22
2022-10-14T09:06:48.141Z,94837.38
2022-10-14T09:08:50.637Z,94841.94
2022-10-14T09:10:52.465Z,94843.72
2022-10-14T09:12:56.852Z,94839.66
2022-10-14T09:15:21.864Z,94841.75
2022-10-14T09:17:27.349Z,94839.19
2022-10-14T09:19:37.441Z,94835.16
2022-10-14T09:21:59.321Z,94827.91
2022-10-14T09:24:13.733Z,94836.34
2022-10-14T09:26:19.725Z,94828.13
2022-10-14T09:28:24.154Z,94833.47
2022-10-14T09:30:29.958Z,94826.03
2022-10-14T09:32:41.678Z,94830.13
2022-10-14T09:34:48.768Z,94834.03
2022-10-14T09:39:02.280Z,94816.38
2022-10-14T09:41:10.943Z,94823.81
2022-10-14T09:43:18.387Z,94829.78
2022-10-14T09:45:25.178Z,94821.31
2022-10-14T09:47:26.856Z,94819.53
2022-10-14T09:49:40.766Z,94819.47
2022-10-14T09:51:42.857Z,94822.50
2022-10-14T09:53:48.680Z,94817.63
2022-10-14T09:55:56.357Z,94831.66
2022-10-14T09:58:04.226Z,94827.22
2022-10-14T10:00:06.723Z,94826.66
2022-10-14T10:02:23.281Z,94826.66
2022-10-14T10:04:47.048Z,94826.09
2022-10-14T10:06:53.154Z,94821.16
2022-10-14T10:08:56.866Z,94817.78
2022-10-14T10:11:10.278Z,94822.47
2022-10-14T10:13:43.434Z,94818.22
2022-10-14T10:15:57.339Z,94817.34
2022-10-14T10:17:59.181Z,94812.91
2022-10-14T10:20:31.900Z,94809.69
2022-10-14T10:22:38.925Z,94815.84
2022-10-14T10:24:40.718Z,94811.97
2022-10-14T10:26:42.546Z,94805.69
2022-10-14T10:28:46.460Z,94807.09
2022-10-14T10:31:19.973Z,94800.53
2022-10-14T10:33:42.695Z,94798.97
2022-10-14T10:36:03.114Z,94798.34
2022-10-14T10:38:15.697Z,94792.69
2022-10-14T10:40:35.080Z,94790.25
2022-10-14T10:43:05.340Z,94790.28
2022-10-14T10:45:47.682Z,94794.78
2022-10-14T10:47:57.359Z,94788.63
2022-10-14T10:49:59.069Z,94782.09
2022-10-14T10:52:30.715Z,94781.44
2022-10-14T10:54:57.343Z,94787.47
2022-10-14T10:57:34.650Z,94783.22
2022-10-14T10:59:56.378Z,94790.06
2022-10-14T11:02:18.250Z,94779.13
2022-10-14T11:04:45.776Z,94771.38
2022-10-14T11:07:15.434Z,94777.81
2022-10-14T11:09:48.693Z,94779.03
2022-10-14T11:12:03.229Z,94767.06
2022-10-14T11:14:07.807Z,94767.91
2022-10-14T11:16:27.764Z,94772.00
2022-10-14T11:18:35.212Z,94757.59
2022-10-14T11:20:58.185Z,94763.34
2022-10-14T11:23:37.367Z,94763.28
2022-10-14T11:25:53.553Z,94754.16
2022-10-14T11:28:19.614Z,94753.16
2022-10-14T11:30:37.944Z,94749.72
2022-10-14T11:32:54.562Z,94738.56
2022-10-14T11:35:14.992Z,94736.56
2022-10-14T11:37:27.830Z,94736.97
2022-10-14T11:39:36.814Z,94729.22
2022-10-14T11:42:14.125Z,94734.09
2022-10-14T11:44:49.570Z,94731.88
2022-10-14T11:46:54.679Z,94731.03
2022-10-14T11:48:58.548Z,94730.00
2022-10-14T11:51:24.655Z,94717.38
2022-10-14T11:55:48.266Z,94713.88
2022-10-14T11:58:05.621Z,94719.56
2022-10-14T12:00:14.018Z,94715.31
2022-10-14T12:02:33.912Z,94716.94
2022-10-14T12:04:36.643Z,94719.84
2022-10-14T12:06:42.436Z,94719.84
2022-10-14T12:08:50.941Z,94707.00
2022-10-14T12:10:58.553Z,94709.03
2022-10-14T12:13:00.629Z,94710.66
2022-10-14T12:15:07.137Z,94709.22
2022-10-14T12:17:26.234Z,94711.47
2022-10-14T12:19:28.749Z,94716.19
2022-10-14T12:21:35.783Z,94711.47
2022-10-14T12:23:46.094Z,94716.16
2022-10-14T12:26:12.201Z,94720.22
2022-10-14T12:28:14.622Z,94721.84
2022-10-14T12:30:40.344Z,94713.28
2022-10-14T12:33:00.749Z,94718.16
2022-10-14T12:35:02.617Z,94715.72
2022-10-14T12:37:32.305Z,94720.81
2022-10-14T12:39:34.996Z,94715.31
2022-10-14T12:41:36.528Z,94717.75
2022-10-14T12:43:38.220Z,94715.31
2022-10-14T12:45:56.805Z,94715.50
2022-10-14T12:48:04.758Z,94716.97
2022-10-14T12:50:15.066Z,94712.47
2022-10-14T12:52:21.613Z,94710.63
2022-10-14T12:54:23.927Z,94716.53
2022-10-14T12:56:31.704Z,94715.50
2022-10-14T12:58:56.271Z,94718.31
2022-10-14T13:01:04.094Z,94712.41
2022-10-14T13:03:17.273Z,94708.94
2022-10-14T13:05:42.482Z,94708.56
2022-10-14T13:07:48.852Z,94712.03
2022-10-14T13:09:57.907Z,94704.69
2022-10-14T13:11:59.568Z,94708.97
2022-10-14T13:14:02.225Z,94714.28
2022-10-14T13:16:10.995Z,94707.97
2022-10-14T13:18:31.281Z,94709.81
2022-10-14T13:20:36.034Z,94703.69
2022-10-14T13:22:38.945Z,94699.78
2022-10-14T13:24:41.826Z,94704.69
2022-10-14T13:26:55.646Z,94706.72
2022-10-14T13:29:06.487Z,94700.78
2022-10-14T13:31:43.462Z,94705.88
2022-10-14T13:33:51.361Z,94709.28
2022-10-14T13:36:22.800Z,94709.28
2022-10-14T13:38:24.703Z,94711.28
2022-10-14T13:40:39.065Z,94717.16
2022-10-14T13:42:40.803Z,94710.88
2022-10-14T13:44:43.667Z,94713.09
2022-10-14T13:46:48.022Z,94710.03
2022-10-14T13:48:56.168Z,94716.78
2022-10-14T13:51:37.023Z,94719.03
2022-10-14T13:53:53.449Z,94716.56
2022-10-14T13:55:55.089Z,94715.56
2022-10-14T13:58:24.085Z,94713.31
2022-10-14T14:00:42.787Z,94714.31
2022-10-14T14:02:45.344Z,94711.69
2022-10-14T14:04:52.967Z,94711.09
2022-10-14T14:07:03.439Z,94716.16
2022-10-14T14:09:20.694Z,94710.00
2022-10-14T14:11:25.321Z,94712.28
2022-10-14T14:13:37.913Z,94710.25
2022-10-14T14:15:40.430Z,94707.38
2022-10-14T14:17:43.630Z,94710.00
2022-10-14T14:19:47.700Z,94704.06
2022-10-14T14:21:49.319Z,94707.38
2022-10-14T14:23:55.476Z,94711.19
2022-10-14T14:26:18.533Z,94712.78
2022-10-14T14:28:20.281Z,94708.09
2022-10-14T14:30:29.737Z,94718.28
2022-10-14T14:32:32.372Z,94714.09
2022-10-14T14:34:34.847Z,94720.13
2022-10-14T14:36:50.895Z,94719.34
2022-10-14T14:39:01.206Z,94729.56
2022-10-14T14:41:18.909Z,94725.50
2022-10-14T14:43:20.870Z,94723.72
2022-10-14T14:45:25.640Z,94733.25
2022-10-14T14:47:28.018Z,94724.34
2022-10-14T14:49:35.887Z,94729.63
2022-10-14T14:51:39.609Z,94741.63
2022-10-14T14:53:41.243Z,94742.06
2022-10-14T14:56:00.533Z,94741.00
2022-10-14T14:58:03.476Z,94741.56
2022-10-14T15:00:07.397Z,94743.47
2022-10-14T15:02:17.179Z,94739.31
2022-10-14T15:04:21.507Z,94750.91
2022-10-14T15:06:23.267Z,94749.44
2022-10-14T15:08:27.905Z,94745.38
2022-10-14T15:10:31.649Z,94737.84
2022-10-14T15:12:50.757Z,94744.31
2022-10-14T15:14:58.920Z,94750.81
2022-10-14T15:17:00.893Z,94742.03
2022-10-14T15:19:21.075Z,94756.84
2022-10-14T15:21:24.692Z,94754.97
2022-10-14T15:24:03.180Z,94759.63
2022-10-14T15:26:20.197Z,94752.84
2022-10-14T15:28:32.259Z,94750.78
2022-10-14T15:30:39.668Z,94755.50
2022-10-14T15:32:41.337Z,94755.28
2022-10-14T15:34:42.993Z,94757.16
2022-10-14T15:36:44.844Z,94755.78
2022-10-14T15:38:46.582Z,94756.41
2022-10-14T15:40:50.143Z,94757.44
2022-10-14T15:42:51.948Z,94754.97
2022-10-14T15:44:53.580Z,94756.19
2022-10-14T15:47:15.158Z,94757.09
2022-10-14T15:49:23.660Z,94748.66
2022-10-14T15:51:30.454Z,94755.31
2022-10-14T15:53:33.095Z,94749.22
2022-10-14T15:55:36.176Z,94748.22
2022-10-14T15:57:38.094Z,94755.13
2022-10-14T15:59:39.712Z,94756.78
2022-10-14T16:01:43.149Z,94762.44
2022-10-14T16:03:44.818Z,94765.88
2022-10-14T16:05:46.426Z,94765.06
2022-10-14T16:07:48.837Z,94769.84
2022-10-14T16:09:50.529Z,94774.47
2022-10-14T16:11:57.484Z,94776.78
2022-10-14T16:13:59.232Z,94774.06
2022-10-14T16:16:02.692Z,94764.56
2022-10-14T16:18:04.479Z,94771.00
2022-10-14T16:20:06.613Z,94772.19
2022-10-14T16:22:09.328Z,94771.63
2022-10-14T16:24:18.230Z,94774.53
2022-10-14T16:26:20.575Z,94778.47
2022-10-14T16:28:22.549Z,94778.25
2022-10-14T16:30:24.256Z,94775.06
2022-10-14T16:32:25.862Z,94771.03
2022-10-14T16:34:27.543Z,94772.31
2022-10-14T16:36:29.428Z,94781.31
2022-10-14T16:38:31.019Z,94783.56
2022-10-14T16:40:36.653Z,94784.84
2022-10-14T16:42:38.937Z,94785.28
2022-10-14T16:44:40.626Z,94774.56
2022-10-14T16:47:00.811Z,94776.00
2022-10-14T16:49:02.433Z,94770.91
2022-10-14T16:51:04.725Z,94768.44
2022-10-14T16:53:24.803Z,94783.47
2022-10-14T16:55:26.415Z,94779.38
2022-10-14T16:57:28.492Z,94778.56
2022-10-14T16:59:31.357Z,94783.66
2022-10-14T17:01:33.174Z,94782.19
2022-10-14T17:03:35.135Z,94787.66
2022-10-14T17:05:36.959Z,94782.75
2022-10-14T17:07:38.554Z,94782.75
2022-10-14T17:09:41.116Z,94784.59
2022-10-14T17:11:43.487Z,94783.16
2022-10-14T17:13:45.176Z,94772.94
2022-10-14T17:15:46.805Z,94779.25
2022-10-14T17:17:48.428Z,94775.16
2022-10-14T17:19:52.612Z,94769.59
2022-10-14T17:21:54.565Z,94775.06
2022-10-14T17:24:01.667Z,94773.03
2022-10-14T17:26:04.471Z,94771.28
2022-10-14T17:28:06.258Z,94773.28
2022-10-14T17:30:08.419Z,94767.78
2022-10-14T17:32:10.092Z,94777.34
2022-10-14T17:34:11.996Z,94773.72
2022-10-14T17:36:18.142Z,94772.09
2022-10-14T17:38:19.717Z,94773.72
2022-10-14T17:40:21.324Z,94778.72
2022-10-14T17:42:23.242Z,94769.44
2022-10-14T17:44:25.086Z,94776.72
2022-10-14T17:46:59.588Z,94782.19
2022-10-14T17:49:03.750Z,94781.28
2022-10-14T17:51:05.559Z,94779.47
2022-10-14T17:53:07.400Z,94778.03
2022-10-14T17:55:09.387Z,94780.00
2022-10-14T17:57:11.056Z,94777.44
2022-10-14T17:59:14.376Z,94774.06
2022-10-14T18:01:16.323Z,94776.34
2022-10-14T18:03:18.555Z,94780.97
2022-10-14T18:05:20.353Z,94777.72
2022-10-14T18:07:23.419Z,94777.72
2022-10-14T18:09:25.225Z,94786.59
2022-10-14T18:11:35.365Z,94782.59
2022-10-14T18:13:58.127Z,94784.09
2022-10-14T18:16:08.189Z,94789.69
2022-10-14T18:18:10.048Z,94786.25
2022-10-14T18:20:11.924Z,94785.78
2022-10-14T18:22:13.830Z,94788.41
2022-10-14T18:24:15.648Z,94790.22
2022-10-14T18:26:19.212Z,94789.16
2022-10-14T18:28:20.827Z,94790.50
2022-10-14T18:30:22.485Z,94787.28
2022-10-14T18:32:24.258Z,94786.63
2022-10-14T18:34:27.515Z,94785.03
2022-10-14T18:36:33.183Z,94788.59
2022-10-14T18:38:35.573Z,94788.75
2022-10-14T18:40:37.433Z,94779.63
2022-10-14T18:42:39.059Z,94787.97
2022-10-14T18:44:40.631Z,94794.78
2022-10-14T18:46:42.464Z,94796.53
2022-10-14T18:48:48.530Z,94797.94
2022-10-14T18:51:00.288Z,94802.97
2022-10-14T18:53:01.936Z,94804.38
2022-10-14T18:55:03.728Z,94803.47
2022-10-14T18:57:05.437Z,94805.78
2022-10-14T18:59:15.390Z,94803.41
2022-10-14T19:01:17.236Z,94805.78
2022-10-14T19:03:18.944Z,94809.28
2022-10-14T19:05:20.532Z,94805.19
2022-10-14T19:07:22.145Z,94805.50
2022-10-14T19:09:29.644Z,94803.69
2022-10-14T19:11:33.038Z,94806.31
2022-10-14T19:13:35.114Z,94811.03
2022-10-14T19:15:51.409Z,94809.88
2022-10-14T19:17:58.916Z,94813.16
2022-10-14T19:20:01.143Z,94824.38
2022-10-14T19:22:02.894Z,94820.50
2022-10-14T19:24:04.951Z,94821.66
2022-10-14T19:26:12.298Z,94819.50
2022-10-14T19:28:14.009Z,94823.47
2022-10-14T19:30:15.709Z,94828.22
2022-10-14T19:32:17.347Z,94823.09
2022-10-14T19:34:18.984Z,94831.09
2022-10-14T19:36:21.918Z,94835.03
2022-10-14T19:38:23.596Z,94834.34
2022-10-14T19:40:25.254Z,94832.00
2022-10-14T19:42:27.100Z,94838.53
2022-10-14T19:44:28.725Z,94839.19
2022-10-14T19:46:30.397Z,94837.53
2022-10-14T19:48:32.221Z,94849.56
2022-10-14T19:50:33.799Z,94847.72
2022-10-14T19:52:35.435Z,94855.63
2022-10-14T19:54:37.084Z,94845.78
2022-10-14T19:56:38.767Z,94851.88
2022-10-14T19:58:44.647Z,94846.59
2022-10-14T20:00:46.723Z,94847.44
2022-10-14T20:02:49.493Z,94848.25
2022-10-14T20:04:51.373Z,94848.91
2022-10-14T20:06:53.069Z,94849.56
2022-10-14T20:08:54.755Z,94857.91
2022-10-14T20:10:56.733Z,94858.56
2022-10-14T20:12:58.297Z,94865.63
2022-10-14T20:14:59.884Z,94856.94
2022-10-14T20:17:02.295Z,94861.19
2022-10-14T20:19:03.925Z,94855.09
2022-10-14T20:21:07.229Z,94859.41
2022-10-14T20:23:08.918Z,94853.47
2022-10-14T20:25:10.587Z,94852.19
2022-10-14T20:27:12.355Z,94856.97
2022-10-14T20:29:14.232Z,94855.97
2022-10-14T20:31:18.013Z,94853.72
2022-10-14T20:33:19.466Z,94854.38
2022-10-14T20:35:21.139Z,94862.78
2022-10-14T20:37:25.787Z,94852.75
2022-10-14T20:39:30.222Z,94848.31
2022-10-14T20:41:31.861Z,94852.59
2022-10-14T20:43:33.529Z,94853.47
2022-10-14T20:45:35.119Z,94842.75
2022-10-14T20:47:36.698Z,94849.31
2022-10-14T20:49:38.360Z,94850.63
2022-10-14T20:51:40.202Z,94852.59
2022-10-14T20:53:42.024Z,94854.03
2022-10-14T20:55:43.619Z,94849.13
2022-10-14T20:57:45.362Z,94850.81
2022-10-14T20:59:47.002Z,94844.75
2022-10-14T21:01:48.601Z,94847.56
2022-10-14T21:03:50.436Z,94847.22
2022-10-14T21:05:52.282Z,94851.16
2022-10-14T21:07:53.871Z,94850.47
2022-10-14T21:09:55.545Z,94842.41
2022-10-14T21:11:57.151Z,94843.06
2022-10-14T21:13:59.676Z,94840.88
2022-10-14T21:16:01.568Z,94847.63
2022-10-14T21:18:03.399Z,94845.81
2022-10-14T21:20:05.686Z,94843.69
2022-10-14T21:22:09.032Z,94843.84
2022-10-14T21:24:13.805Z,94846.63
2022-10-14T21:26:15.564Z,94840.06
2022-10-14T21:28:17.212Z,94841.06
2022-10-14T21:30:18.890Z,94844.66
2022-10-14T21:32:20.770Z,94855.69
2022-10-14T21:34:24.908Z,94846.31
2022-10-14T21:36:26.805Z,94851.41
2022-10-14T21:38:29.641Z,94848.13
2022-10-14T21:40:31.542Z,94847.31
2022-10-14T21:42:33.201Z,94856.88
2022-10-14T21:44:34.795Z,94852.25
2022-10-14T21:46:36.643Z,94854.69
2022-10-14T21:48:38.775Z,94849.91
2022-10-14T21:50:40.375Z,94859.16
2022-10-14T21:52:42.167Z,94862.09
2022-10-14T21:54:43.837Z,94862.75
2022-10-14T21:56:45.480Z,94861.41
2022-10-14T21:58:47.222Z,94859.25
2022-10-14T22:00:48.973Z,94858.13
2022-10-14T22:02:54.222Z,94855.31
2022-10-14T22:04:55.883Z,94858.28
2022-10-14T22:06:58.182Z,94858.78
2022-10-14T22:09:01.320Z,94863.69
2022-10-14T22:11:03.929Z,94863.88
2022-10-14T22:13:06.381Z,94864.00
2022-10-14T22:15:08.616Z,94862.47
2022-10-14T22:17:10.353Z,94871.16
2022-10-14T22:19:12.418Z,94864.41
2022-10-14T22:21:15.592Z,94862.09
2022-10-14T22:23:17.496Z,94869.50
2022-10-14T22:25:19.130Z,94861.63
2022-10-14T22:27:21.041Z,94870.97
2022-10-14T22:29:22.869Z,94873.06
2022-10-14T22:31:24.487Z,94872.06
2022-10-14T22:33:26.090Z,94866.81
2022-10-14T22:35:27.976Z,94865.34
2022-10-14T22:37:32.002Z,94869.28
2022-10-14T22:39:33.662Z,94866.13
2022-10-14T22:41:36.095Z,94861.34
2022-10-14T22:43:38.415Z,94862.44
2022-10-14T22:45:40.072Z,94868.72
2022-10-14T22:47:41.687Z,94865.28
2022-10-14T22:49:43.329Z,94865.59
2022-10-14T22:51:44.957Z,94862.69
2022-10-14T22:53:46.948Z,94865.31
2022-10-14T22:55:54.948Z,94867.78
2022-10-14T22:57:56.571Z,94871.38
2022-10-14T22:59:58.157Z,94866.13
2022-10-14T23:01:59.986Z,94872.91
2022-10-14T23:04:02.220Z,94868.78
2022-10-14T23:06:06.509Z,94870.09
2022-10-14T23:08:10.763Z,94869.75
2022-10-14T23:10:12.423Z,94871.75
2022-10-14T23:12:14.108Z,94870.56
2022-10-14T23:14:16.004Z,94867.41
2022-10-14T23:16:22.256Z,94862.81
2022-10-14T23:18:25.174Z,94865.44
2022-10-14T23:20:27.291Z,94861.66
2022-10-14T23:22:28.932Z,94864.19
2022-10-14T23:24:30.729Z,94863.75
2022-10-14T23:26:34.748Z,94871.75
2022-10-14T23:28:37.009Z,94870.59
2022-10-14T23:30:38.709Z,94871.13
2022-10-14T23:32:40.431Z,94867.03
2022-10-14T23:34:42.053Z,94872.59
2022-10-14T23:36:43.794Z,94869.78
2022-10-14T23:38:46.561Z,94870.06
2022-10-14T23:40:48.148Z,94867.22
2022-10-14T23:42:49.770Z,94868.03
2022-10-14T23:44:51.447Z,94864.59
2022-10-14T23:46:53.062Z,94864.66
2022-10-14T23:49:06.931Z,94868.25
2022-10-14T23:51:09.101Z,94865.84
2022-10-14T23:53:11.760Z,94862.06
2022-10-14T23:55:14.281Z,94870.44
2022-10-14T23:57:16.030Z,94866.97
2022-10-14T23:59:17.913Z,94877.16
